Time;durP1;ratioP1;P1;durP2;ratioP2;P2;SDS_P1;SDS_P2;PMS_P1;PMS_P2;Temp;Humidity;BMP_temperature;BMP_pressure;BME280_temperature;BME280_humidity;BME280_pressure;Samples;Min_cycle;Max_cycle;Signal;HPM_P1;HPM_P2
2021/05/01 00:01:14;;;;;;;25.53;18.63;;;2.50;99.90;;;;;;4998728;28;20232;-76
2021/05/01 00:03:42;;;;;;;27.07;18.23;;;2.50;99.90;;;;;;4997586;28;20208;-75
2021/05/01 00:06:08;;;;;;;24.80;18.20;;;2.50;99.90;;;;;;5002616;28;20216;-75
2021/05/01 00:08:35;;;;;;;28.00;19.30;;;2.50;99.90;;;;;;4999424;28;20212;-75
2021/05/01 00:11:02;;;;;;;26.27;19.00;;;2.40;99.90;;;;;;5002032;28;20197;-75
2021/05/01 00:13:29;;;;;;;26.90;19.60;;;2.40;99.90;;;;;;4999934;28;20201;-77
2021/05/01 00:15:55;;;;;;;28.93;20.37;;;2.40;99.90;;;;;;5004915;28;20205;-77
2021/05/01 00:18:22;;;;;;;29.40;18.80;;;2.30;99.90;;;;;;4999349;28;20211;-76
2021/05/01 00:20:50;;;;;;;25.23;18.90;;;2.30;99.90;;;;;;4999485;28;20200;-75
2021/05/01 00:23:16;;;;;;;28.73;19.40;;;2.30;99.90;;;;;;4998684;28;20300;-75
2021/05/01 00:25:43;;;;;;;27.77;19.73;;;2.40;99.90;;;;;;5002845;28;20225;-76
2021/05/01 00:28:11;;;;;;;27.67;19.10;;;2.30;99.90;;;;;;5002891;28;20205;-76
2021/05/01 00:30:37;;;;;;;29.27;19.47;;;2.40;99.90;;;;;;5001430;28;20208;-77
2021/05/01 00:33:04;;;;;;;26.07;19.83;;;2.30;99.90;;;;;;4993652;28;20202;-76
2021/05/01 00:35:31;;;;;;;32.07;21.33;;;2.40;99.90;;;;;;4998575;28;20201;-77
2021/05/01 00:37:58;;;;;;;29.70;20.60;;;2.40;99.90;;;;;;5005604;28;20204;-76
2021/05/01 00:40:25;;;;;;;27.47;19.87;;;2.40;99.90;;;;;;5004783;28;20208;-77
2021/05/01 00:42:52;;;;;;;28.17;20.57;;;2.40;99.90;;;;;;5002685;28;20205;-75
2021/05/01 00:45:18;;;;;;;27.17;21.03;;;2.40;99.90;;;;;;5006652;28;20698;-75
2021/05/01 00:47:45;;;;;;;30.47;20.63;;;2.40;99.90;;;;;;5003086;28;22292;-77
2021/05/01 00:50:13;;;;;;;28.67;20.00;;;2.30;99.90;;;;;;5005361;28;20202;-76
2021/05/01 00:52:40;;;;;;;29.17;21.33;;;2.30;99.90;;;;;;5004498;28;20198;-76
2021/05/01 00:55:09;;;;;;;31.07;20.87;;;2.30;99.90;;;;;;5006157;28;20227;-76
2021/05/01 00:57:37;;;;;;;27.17;19.53;;;2.30;99.90;;;;;;5006968;28;20201;-73
2021/05/01 01:00:05;;;;;;;32.00;20.40;;;2.30;99.90;;;;;;5003869;28;20213;-75
2021/05/01 01:02:32;;;;;;;27.90;20.77;;;2.30;99.90;;;;;;4996461;28;20201;-74
2021/05/01 01:04:58;;;;;;;30.07;20.87;;;2.20;99.90;;;;;;5003151;28;20746;-74
2021/05/01 01:07:25;;;;;;;30.20;21.27;;;2.20;99.90;;;;;;5004263;28;20208;-74
2021/05/01 01:09:52;;;;;;;29.43;21.90;;;2.20;99.90;;;;;;5002188;28;20194;-74
2021/05/01 01:12:20;;;;;;;28.80;21.20;;;2.10;99.90;;;;;;5000832;28;20210;-75
2021/05/01 01:14:46;;;;;;;26.97;20.17;;;2.10;99.90;;;;;;4997221;28;20205;-75
2021/05/01 01:17:13;;;;;;;26.90;20.83;;;2.10;99.90;;;;;;5003539;28;20647;-74
2021/05/01 01:19:39;;;;;;;31.37;21.40;;;2.10;99.90;;;;;;5006834;28;20201;-74
2021/05/01 01:22:13;;;;;;;31.73;22.77;;;2.00;99.90;;;;;;5005322;28;20221;-74
2021/05/01 01:24:40;;;;;;;31.70;22.83;;;2.00;99.90;;;;;;5002252;28;20213;-75
2021/05/01 01:27:08;;;;;;;32.87;24.07;;;2.00;99.90;;;;;;5005533;28;20200;-73
2021/05/01 01:29:36;;;;;;;33.50;23.03;;;2.00;99.90;;;;;;5004688;28;20292;-73
2021/05/01 01:32:02;;;;;;;32.07;21.37;;;2.00;99.90;;;;;;5001423;28;20209;-75
2021/05/01 01:34:29;;;;;;;33.13;22.57;;;2.10;99.90;;;;;;5008224;28;20682;-73
2021/05/01 01:36:56;;;;;;;32.50;22.00;;;2.10;99.90;;;;;;4998305;28;20196;-74
2021/05/01 01:39:23;;;;;;;30.50;22.40;;;2.00;99.90;;;;;;4996934;28;20567;-76
2021/05/01 01:41:49;;;;;;;31.50;22.50;;;2.00;99.90;;;;;;5004781;28;20228;-74
2021/05/01 01:44:16;;;;;;;35.90;22.93;;;1.90;99.90;;;;;;5008418;28;20217;-74
2021/05/01 01:46:42;;;;;;;32.40;22.83;;;1.90;99.90;;;;;;5006482;28;20233;-73
2021/05/01 01:49:09;;;;;;;41.40;24.50;;;2.00;99.90;;;;;;4999085;28;20256;-75
2021/05/01 01:51:35;;;;;;;36.43;23.13;;;1.90;99.90;;;;;;5001035;28;20197;-77
2021/05/01 01:54:02;;;;;;;31.57;22.90;;;1.90;99.90;;;;;;5005614;28;20204;-74
2021/05/01 01:56:29;;;;;;;35.40;24.10;;;1.90;99.90;;;;;;5002223;28;20650;-76
2021/05/01 01:58:56;;;;;;;33.47;23.63;;;1.90;99.90;;;;;;5007388;28;20193;-74
2021/05/01 02:01:23;;;;;;;41.27;24.50;;;1.90;99.90;;;;;;5002295;28;20225;-74
2021/05/01 02:03:49;;;;;;;36.30;24.50;;;1.80;99.90;;;;;;5000772;28;20209;-74
2021/05/01 02:06:16;;;;;;;34.50;23.63;;;1.90;99.90;;;;;;4998877;28;20220;-75
2021/05/01 02:08:43;;;;;;;36.10;25.27;;;1.90;99.90;;;;;;5005638;28;20236;-75
2021/05/01 02:11:10;;;;;;;35.67;22.80;;;1.90;99.90;;;;;;4997599;28;20331;-74
2021/05/01 02:13:37;;;;;;;31.43;23.03;;;1.90;99.90;;;;;;5000857;28;20688;-74
2021/05/01 02:16:04;;;;;;;35.17;24.20;;;1.80;99.90;;;;;;4996901;28;20208;-75
2021/05/01 02:18:31;;;;;;;34.77;23.73;;;1.80;99.90;;;;;;5001284;28;20208;-74
2021/05/01 02:20:57;;;;;;;37.93;24.53;;;1.80;99.90;;;;;;4999667;28;20220;-76
2021/05/01 02:23:24;;;;;;;36.43;24.47;;;1.90;99.90;;;;;;4997735;28;20198;-73
2021/05/01 02:25:50;;;;;;;34.73;24.23;;;1.90;99.90;;;;;;4999417;28;20217;-75
2021/05/01 02:28:18;;;;;;;37.47;24.97;;;1.90;99.90;;;;;;4997623;28;20212;-73
2021/05/01 02:30:46;;;;;;;42.27;26.67;;;1.90;99.90;;;;;;4997101;28;22026;-75
2021/05/01 02:33:13;;;;;;;37.43;25.27;;;2.00;99.90;;;;;;4995977;28;20211;-75
2021/05/01 02:35:41;;;;;;;38.83;26.23;;;2.00;99.90;;;;;;4998989;28;20204;-76
2021/05/01 02:38:08;;;;;;;36.53;25.07;;;2.00;99.90;;;;;;4998489;28;20569;-75
2021/05/01 02:40:35;;;;;;;39.17;25.83;;;2.00;99.90;;;;;;5000350;28;20228;-75
2021/05/01 02:43:03;;;;;;;35.87;25.00;;;1.90;99.90;;;;;;4996978;28;20216;-75
2021/05/01 02:45:30;;;;;;;40.90;25.23;;;1.80;99.90;;;;;;4997903;28;20288;-75
2021/05/01 02:47:57;;;;;;;39.87;24.73;;;1.80;99.90;;;;;;4997998;28;20213;-76
2021/05/01 02:50:24;;;;;;;34.97;24.17;;;1.80;99.90;;;;;;5000714;28;20201;-76
2021/05/01 02:52:51;;;;;;;32.53;23.27;;;1.90;99.90;;;;;;5001090;28;20201;-75
2021/05/01 02:55:18;;;;;;;36.03;23.43;;;1.80;99.90;;;;;;5000705;28;20212;-74
2021/05/01 02:57:44;;;;;;;29.60;21.97;;;1.80;99.90;;;;;;4996454;28;20251;-74
2021/05/01 03:00:14;;;;;;;31.53;21.67;;;1.70;99.90;;;;;;4996890;28;20256;-75
2021/05/01 03:02:41;;;;;;;33.27;22.87;;;1.60;99.90;;;;;;4995508;28;20771;-75
2021/05/01 03:05:10;;;;;;;32.67;23.80;;;1.50;99.90;;;;;;4999595;28;20546;-76
2021/05/01 03:07:36;;;;;;;29.83;22.17;;;1.50;99.90;;;;;;4998104;28;20201;-75
2021/05/01 03:10:04;;;;;;;33.37;22.10;;;1.50;99.90;;;;;;4994574;28;20267;-76
2021/05/01 03:12:31;;;;;;;31.93;21.80;;;1.40;99.90;;;;;;5006205;28;20251;-75
2021/05/01 03:14:58;;;;;;;33.57;23.30;;;1.50;99.90;;;;;;5002523;28;20208;-74
2021/05/01 03:17:24;;;;;;;33.73;24.40;;;1.50;99.90;;;;;;4993720;28;20201;-75
2021/05/01 03:19:51;;;;;;;33.43;23.60;;;1.50;99.90;;;;;;5000384;28;20579;-75
2021/05/01 03:22:18;;;;;;;37.17;25.47;;;1.50;99.90;;;;;;4998265;28;20201;-75
2021/05/01 03:24:45;;;;;;;32.90;24.07;;;1.50;99.90;;;;;;4997119;28;20300;-76
2021/05/01 03:27:11;;;;;;;38.33;26.50;;;1.50;99.90;;;;;;4995180;28;20209;-76
2021/05/01 03:29:38;;;;;;;38.67;26.63;;;1.50;99.90;;;;;;4997496;28;20694;-76
2021/05/01 03:32:05;;;;;;;43.50;28.87;;;1.50;99.90;;;;;;4997409;28;20201;-76
2021/05/01 03:34:32;;;;;;;42.67;27.03;;;1.50;99.90;;;;;;4994520;28;20689;-75
2021/05/01 03:36:58;;;;;;;43.17;27.13;;;1.50;99.90;;;;;;4997047;28;20209;-75
2021/05/01 03:39:26;;;;;;;39.57;26.43;;;1.50;99.90;;;;;;4994977;28;20646;-74
2021/05/01 03:41:52;;;;;;;34.13;22.07;;;1.40;99.90;;;;;;5007454;28;20205;-75
2021/05/01 03:44:18;;;;;;;30.77;21.57;;;1.40;99.90;;;;;;5000180;28;20197;-74
2021/05/01 03:46:45;;;;;;;29.53;21.27;;;1.30;99.90;;;;;;5001844;28;20201;-74
2021/05/01 03:49:11;;;;;;;34.57;22.50;;;1.30;99.90;;;;;;5000723;28;20306;-73
2021/05/01 03:51:38;;;;;;;32.37;22.67;;;1.20;99.90;;;;;;5004789;28;20193;-74
2021/05/01 03:54:05;;;;;;;32.30;20.93;;;1.20;99.90;;;;;;5000872;28;21110;-74
2021/05/01 03:56:33;;;;;;;30.93;20.73;;;1.10;99.90;;;;;;4999341;28;20197;-74
2021/05/01 03:59:00;;;;;;;31.40;22.10;;;1.10;99.90;;;;;;4994633;28;20196;-74
2021/05/01 04:01:26;;;;;;;30.83;22.90;;;1.10;99.90;;;;;;4995629;28;20236;-74
2021/05/01 04:03:53;;;;;;;35.07;23.33;;;1.00;99.90;;;;;;5007141;28;20197;-73
2021/05/01 04:06:20;;;;;;;30.67;22.20;;;1.00;99.90;;;;;;5009199;28;20225;-74
2021/05/01 04:08:46;;;;;;;36.47;24.27;;;1.00;99.90;;;;;;4998853;28;20602;-74
2021/05/01 04:11:13;;;;;;;32.00;23.60;;;1.00;99.90;;;;;;5009743;28;20201;-74
2021/05/01 04:13:46;;;;;;;35.07;23.70;;;1.10;99.90;;;;;;5002908;28;20197;-75
2021/05/01 04:16:13;;;;;;;40.60;25.47;;;1.20;99.90;;;;;;5006449;28;20224;-74
2021/05/01 04:18:40;;;;;;;33.77;24.40;;;1.30;99.90;;;;;;4996502;28;20206;-74
2021/05/01 04:21:06;;;;;;;39.07;26.23;;;1.50;99.90;;;;;;4999811;28;20248;-74
2021/05/01 04:23:33;;;;;;;43.27;27.30;;;1.70;99.90;;;;;;4995541;28;20576;-74
2021/05/01 04:26:00;;;;;;;42.37;27.47;;;1.90;99.90;;;;;;5004347;28;20225;-75
2021/05/01 04:28:26;;;;;;;44.03;27.20;;;2.10;99.90;;;;;;5006469;28;20205;-74
2021/05/01 04:30:54;;;;;;;38.20;26.73;;;2.20;99.90;;;;;;4999133;28;20259;-76
2021/05/01 04:33:21;;;;;;;40.50;26.13;;;2.20;99.90;;;;;;4997820;28;20225;-74
2021/05/01 04:35:48;;;;;;;41.60;27.13;;;2.30;99.90;;;;;;5002035;28;20200;-74
2021/05/01 04:38:15;;;;;;;43.90;26.27;;;2.20;99.90;;;;;;5005868;28;20232;-74
2021/05/01 04:40:42;;;;;;;41.17;25.50;;;2.30;99.90;;;;;;5002267;28;20223;-74
2021/05/01 04:43:10;;;;;;;38.43;26.33;;;2.20;99.90;;;;;;4997894;28;20201;-74
2021/05/01 04:45:37;;;;;;;40.00;25.73;;;2.30;99.90;;;;;;5004765;28;20216;-75
2021/05/01 04:48:06;;;;;;;37.73;25.87;;;2.30;99.90;;;;;;5005788;28;20612;-75
2021/05/01 04:50:33;;;;;;;36.53;25.73;;;2.40;99.90;;;;;;5001004;28;20645;-74
2021/05/01 04:53:00;;;;;;;40.33;26.13;;;2.50;99.90;;;;;;5004550;28;20201;-76
2021/05/01 04:55:27;;;;;;;39.10;26.93;;;2.60;99.90;;;;;;5001371;28;20201;-76
2021/05/01 04:57:54;;;;;;;44.67;27.10;;;2.60;99.90;;;;;;4998997;28;20219;-75
2021/05/01 05:00:23;;;;;;;43.20;28.00;;;2.80;99.90;;;;;;5002698;28;21026;-74
2021/05/01 05:02:50;;;;;;;34.10;25.90;;;3.10;99.90;;;;;;5003917;28;20223;-75
2021/05/01 05:05:19;;;;;;;40.90;27.17;;;3.20;99.90;;;;;;4999886;28;20224;-75
2021/05/01 05:07:45;;;;;;;45.00;29.07;;;3.30;99.90;;;;;;4998600;28;20197;-74
2021/05/01 05:10:14;;;;;;;36.83;28.87;;;3.40;99.90;;;;;;5003497;28;20201;-76
2021/05/01 05:12:40;;;;;;;45.43;31.10;;;3.70;99.90;;;;;;4997185;28;20197;-75
2021/05/01 05:15:08;;;;;;;47.43;34.60;;;4.30;99.90;;;;;;5000482;28;20204;-75
2021/05/01 05:17:35;;;;;;;55.07;35.67;;;4.90;99.90;;;;;;4996523;28;20256;-74
2021/05/01 05:20:01;;;;;;;50.73;34.50;;;5.20;99.90;;;;;;5004578;28;20259;-77
2021/05/01 05:22:29;;;;;;;48.27;32.43;;;5.20;99.90;;;;;;5000713;28;20197;-75
2021/05/01 05:24:55;;;;;;;44.67;32.77;;;5.40;99.90;;;;;;5000722;28;20221;-76
2021/05/01 05:27:22;;;;;;;44.17;32.90;;;5.70;99.90;;;;;;5005328;28;20212;-75
2021/05/01 05:29:50;;;;;;;48.80;33.87;;;6.00;99.90;;;;;;5003784;28;20208;-75
2021/05/01 05:32:18;;;;;;;49.60;35.30;;;6.40;99.90;;;;;;4999019;28;20201;-75
2021/05/01 05:34:44;;;;;;;55.33;37.40;;;7.00;99.90;;;;;;4998419;28;20216;-77
2021/05/01 05:37:11;;;;;;;50.20;37.63;;;7.40;99.90;;;;;;4999079;28;20238;-76
2021/05/01 05:39:39;;;;;;;44.77;34.80;;;7.70;99.90;;;;;;5002491;28;20197;-76
2021/05/01 05:42:06;;;;;;;39.97;30.83;;;7.90;99.90;;;;;;4999901;28;20544;-76
2021/05/01 05:44:33;;;;;;;31.43;25.67;;;8.00;99.90;;;;;;4995204;28;20229;-77
2021/05/01 05:47:00;;;;;;;25.63;21.40;;;8.30;99.90;;;;;;5000665;28;20200;-75
2021/05/01 05:49:27;;;;;;;24.47;19.53;;;8.60;99.90;;;;;;4994140;28;20216;-75
2021/05/01 05:51:53;;;;;;;17.83;15.80;;;9.00;99.90;;;;;;5001652;28;20556;-75
2021/05/01 05:54:20;;;;;;;15.23;13.77;;;9.40;99.90;;;;;;5004844;28;20200;-76
2021/05/01 05:56:47;;;;;;;13.50;12.07;;;9.80;99.90;;;;;;5000165;28;20220;-76
2021/05/01 05:59:14;;;;;;;12.07;10.43;;;10.20;99.90;;;;;;5004257;28;20204;-73
2021/05/01 06:01:45;;;;;;;12.30;9.13;;;10.60;99.90;;;;;;5004030;28;20240;-74
2021/05/01 06:04:16;;;;;;;9.33;8.50;;;10.90;99.90;;;;;;4995990;28;21300;-74
2021/05/01 06:06:49;;;;;;;10.20;9.30;;;11.30;99.90;;;;;;4996157;28;20344;-75
2021/05/01 06:09:16;;;;;;;10.60;9.07;;;11.90;99.90;;;;;;5005185;28;20531;-74
2021/05/01 06:11:43;;;;;;;9.40;8.50;;;12.20;99.90;;;;;;5001806;28;20811;-75
2021/05/01 06:14:15;;;;;;;9.07;8.17;;;12.60;99.90;;;;;;5007174;28;20268;-74
2021/05/01 06:16:43;;;;;;;9.80;8.63;;;13.00;99.90;;;;;;5005300;28;20228;-75
2021/05/01 06:19:11;;;;;;;9.30;8.40;;;13.20;99.90;;;;;;5001306;28;20198;-75
2021/05/01 06:21:38;;;;;;;10.00;9.10;;;13.50;99.90;;;;;;5001933;28;20212;-75
2021/05/01 06:24:07;;;;;;;9.97;9.07;;;13.60;99.90;;;;;;5002564;28;20247;-74
2021/05/01 06:26:36;;;;;;;8.70;7.87;;;13.90;99.90;;;;;;5000384;28;20651;-74
2021/05/01 06:29:04;;;;;;;8.17;7.50;;;14.30;99.90;;;;;;4995201;28;20658;-74
2021/05/01 06:31:35;;;;;;;7.70;6.80;;;14.40;99.90;;;;;;4998994;28;20212;-74
2021/05/01 06:34:03;;;;;;;7.70;7.00;;;14.60;99.90;;;;;;4994393;28;20288;-76
2021/05/01 06:36:30;;;;;;;7.23;6.53;;;14.30;99.90;;;;;;4994913;28;20674;-76
2021/05/01 06:39:01;;;;;;;7.67;6.60;;;13.70;99.90;;;;;;4998770;28;20197;-76
2021/05/01 06:41:37;;;;;;;7.30;6.40;;;12.60;99.90;;;;;;4998797;28;20190;-75
2021/05/01 06:44:07;;;;;;;7.83;7.13;;;11.50;99.90;;;;;;4996245;28;20259;-76
2021/05/01 06:46:39;;;;;;;8.20;7.20;;;10.90;99.90;;;;;;4994078;28;20225;-75
2021/05/01 06:49:11;;;;;;;7.57;6.77;;;10.40;99.90;;;;;;4998775;28;20264;-75
2021/05/01 06:51:39;;;;;;;7.87;7.07;;;10.10;99.90;;;;;;5000941;28;20193;-75
2021/05/01 06:54:08;;;;;;;9.67;8.27;;;9.90;99.90;;;;;;5001993;28;20207;-75
2021/05/01 06:56:39;;;;;;;10.13;8.47;;;9.80;99.90;;;;;;5001377;28;20270;-77
2021/05/01 06:59:07;;;;;;;11.27;8.40;;;9.70;99.90;;;;;;4996595;28;20267;-77
2021/05/01 07:01:37;;;;;;;6.63;5.90;;;9.60;99.90;;;;;;4996509;28;20318;-78
2021/05/01 07:04:05;;;;;;;8.47;6.00;;;9.30;99.90;;;;;;5002054;28;20205;-82
2021/05/01 07:06:32;;;;;;;6.77;6.07;;;9.00;99.90;;;;;;4999627;28;20238;-79
2021/05/01 07:09:01;;;;;;;6.23;5.70;;;8.70;99.90;;;;;;5006289;28;20197;-78
2021/05/01 07:11:29;;;;;;;5.30;4.80;;;8.50;99.90;;;;;;4999156;28;20220;-77
2021/05/01 07:13:56;;;;;;;5.63;5.13;;;8.40;99.90;;;;;;4998397;28;20201;-76
2021/05/01 07:16:23;;;;;;;5.40;5.00;;;8.30;99.90;;;;;;4997856;28;20200;-75
2021/05/01 07:18:50;;;;;;;5.20;4.70;;;8.40;99.90;;;;;;4996182;28;20197;-75
2021/05/01 07:21:18;;;;;;;6.97;5.00;;;8.50;99.90;;;;;;5000061;28;20678;-77
2021/05/01 07:23:45;;;;;;;5.20;4.50;;;8.80;99.90;;;;;;4997795;28;20230;-74
2021/05/01 07:26:18;;;;;;;5.47;4.50;;;9.60;99.90;;;;;;4996259;28;20597;-73
2021/05/01 07:28:47;;;;;;;4.17;3.83;;;10.20;99.90;;;;;;5006650;28;20215;-73
2021/05/01 07:31:19;;;;;;;4.67;4.23;;;10.90;99.90;;;;;;5006174;28;20238;-73
2021/05/01 07:33:48;;;;;;;4.70;4.30;;;11.20;99.90;;;;;;4996161;28;20201;-74
2021/05/01 07:36:21;;;;;;;5.20;4.80;;;11.30;99.90;;;;;;4999281;28;20655;-74
2021/05/01 07:38:48;;;;;;;5.63;5.17;;;11.00;99.90;;;;;;5005440;28;20690;-72
2021/05/01 07:41:16;;;;;;;5.20;4.80;;;11.10;99.90;;;;;;4997393;28;20224;-72
2021/05/01 07:43:47;;;;;;;5.30;4.90;;;12.20;99.90;;;;;;5010956;28;20235;-74
2021/05/01 07:46:14;;;;;;;5.30;4.90;;;13.90;99.90;;;;;;5005954;28;20686;-72
2021/05/01 07:48:42;;;;;;;6.03;5.50;;;15.30;99.90;;;;;;5010982;28;20232;-72
2021/05/01 07:51:08;;;;;;;6.07;5.00;;;16.40;99.90;;;;;;5011999;28;20271;-72
2021/05/01 07:53:36;;;;;;;6.27;5.33;;;17.20;99.90;;;;;;5011799;28;20197;-72
2021/05/01 07:56:03;;;;;;;5.40;4.93;;;17.40;99.90;;;;;;5012133;28;20197;-73
2021/05/01 07:58:30;;;;;;;5.95;5.30;;;17.80;99.90;;;;;;5009962;28;20208;-72
2021/05/01 08:00:56;;;;;;;5.65;5.00;;;18.30;99.90;;;;;;5003888;28;20233;-72
2021/05/01 08:03:23;;;;;;;5.32;4.93;;;18.30;99.90;;;;;;4993154;28;20205;-72
2021/05/01 08:05:50;;;;;;;5.13;4.72;;;18.30;99.90;;;;;;4991794;28;20276;-72
2021/05/01 08:08:16;;;;;;;5.22;4.68;;;18.40;99.90;;;;;;4993126;28;20209;-73
2021/05/01 08:10:44;;;;;;;4.93;4.60;;;18.10;99.90;;;;;;5005892;28;20300;-73
2021/05/01 08:13:11;;;;;;;5.50;4.72;;;18.50;99.90;;;;;;5007639;28;20202;-73
2021/05/01 08:15:38;;;;;;;4.47;4.07;;;19.00;99.90;;;;;;4997747;28;20255;-72
2021/05/01 08:18:06;;;;;;;4.50;4.10;;;17.60;99.90;;;;;;5011981;28;20212;-72
2021/05/01 08:20:34;;;;;;;5.30;4.57;;;15.60;99.90;;;;;;5006730;28;20204;-73
2021/05/01 08:23:00;;;;;;;5.33;4.30;;;14.10;99.90;;;;;;4994824;28;20267;-73
2021/05/01 08:25:28;;;;;;;5.53;5.03;;;12.90;99.90;;;;;;5012560;28;20224;-73
2021/05/01 08:27:55;;;;;;;6.60;4.90;;;12.20;99.90;;;;;;5009903;28;20200;-74
2021/05/01 08:30:23;;;;;;;7.27;4.77;;;12.30;99.90;;;;;;5006496;28;20288;-72
2021/05/01 08:32:49;;;;;;;5.87;4.63;;;13.90;99.90;;;;;;5015058;28;20247;-75
2021/05/01 08:35:17;;;;;;;5.20;4.70;;;16.00;99.90;;;;;;5000359;28;20197;-73
2021/05/01 08:37:44;;;;;;;5.97;4.87;;;17.80;99.90;;;;;;5015496;28;20201;-72
2021/05/01 08:40:13;;;;;;;4.77;4.23;;;18.00;99.90;;;;;;5010680;28;20209;-74
2021/05/01 08:42:42;;;;;;;5.00;4.50;;;17.10;99.90;;;;;;4997177;28;20596;-72
2021/05/01 08:45:11;;;;;;;5.33;4.83;;;15.90;99.90;;;;;;5002950;28;20768;-73
2021/05/01 08:47:42;;;;;;;5.43;4.53;;;14.90;99.90;;;;;;4996598;28;20198;-72
2021/05/01 08:50:31;;;;;;;5.10;4.60;;;14.00;99.90;;;;;;4998424;28;20236;-73
2021/05/01 08:52:58;;;;;;;5.40;4.63;;;13.60;99.90;;;;;;5014026;28;20205;-73
2021/05/01 08:55:27;;;;;;;5.77;5.00;;;14.90;99.90;;;;;;5003451;28;20248;-74
2021/05/01 08:57:53;;;;;;;5.00;4.47;;;16.80;99.90;;;;;;5014849;28;20642;-73
2021/05/01 09:00:22;;;;;;;5.43;4.90;;;18.60;99.90;;;;;;5006462;28;20217;-74
2021/05/01 09:02:50;;;;;;;4.95;4.45;;;19.40;99.90;;;;;;4997175;28;20190;-75
2021/05/01 09:05:17;;;;;;;4.85;4.45;;;19.60;99.90;;;;;;5013218;28;20736;-74
2021/05/01 09:07:46;;;;;;;5.60;5.10;;;18.90;99.90;;;;;;5015577;28;20211;-74
2021/05/01 09:10:13;;;;;;;5.97;4.87;;;17.30;99.90;;;;;;5010449;28;20204;-73
2021/05/01 09:12:42;;;;;;;6.30;5.70;;;16.20;99.90;;;;;;5015787;28;20247;-73
2021/05/01 09:15:11;;;;;;;7.17;5.50;;;15.00;99.90;;;;;;5007356;28;20320;-75
2021/05/01 09:17:40;;;;;;;6.73;5.60;;;15.60;99.90;;;;;;5014008;28;20217;-76
2021/05/01 09:20:10;;;;;;;6.37;5.77;;;16.90;99.90;;;;;;5013551;28;20197;-75
2021/05/01 09:22:54;;;;;;;6.45;5.38;;;18.30;99.90;;;;;;5003940;28;20205;-74
2021/05/01 09:25:21;;;;;;;5.78;5.00;;;19.50;99.90;;;;;;5008113;28;20740;-74
2021/05/01 09:28:02;;;;;;;5.07;4.68;;;20.40;99.90;;;;;;5013746;28;22077;-75
2021/05/01 09:30:30;;;;;;;5.88;4.90;;;21.40;99.90;;;;;;4994417;28;20209;-75
2021/05/01 09:33:24;;;;;;;5.18;4.75;;;21.90;99.90;;;;;;5015375;28;20208;-74
2021/05/01 09:35:56;;;;;;;4.22;3.85;;;22.60;99.90;;;;;;5010050;28;20205;-74
2021/05/01 09:38:23;;;;;;;4.60;4.15;;;21.80;99.90;;;;;;5015299;28;20196;-76
2021/05/01 09:40:50;;;;;;;5.18;4.45;;;20.80;99.90;;;;;;5003276;28;20549;-75
2021/05/01 09:43:17;;;;;;;5.70;5.20;;;19.80;99.90;;;;;;5005926;28;20556;-74
2021/05/01 09:45:44;;;;;;;5.80;5.13;;;18.20;99.90;;;;;;5002578;28;20229;-74
2021/05/01 09:48:15;;;;;;;5.53;4.70;;;18.00;99.90;;;;;;4998963;28;20197;-75
2021/05/01 09:50:43;;;;;;;6.15;5.63;;;18.50;99.90;;;;;;5015110;28;20197;-75
2021/05/01 09:53:13;;;;;;;5.63;4.85;;;18.40;99.90;;;;;;5003167;28;20717;-74
2021/05/01 09:55:50;;;;;;;5.30;4.90;;;18.00;99.90;;;;;;5007565;28;20243;-74
2021/05/01 09:58:20;;;;;;;5.72;5.13;;;18.70;99.90;;;;;;5000062;28;20193;-75
2021/05/01 10:00:48;;;;;;;4.88;4.47;;;19.30;99.90;;;;;;5011045;28;20237;-74
2021/05/01 10:03:19;;;;;;;6.13;5.55;;;18.50;99.90;;;;;;5014005;28;20257;-75
2021/05/01 10:05:48;;;;;;;6.27;5.50;;;16.70;99.90;;;;;;4998831;28;20641;-75
2021/05/01 10:08:15;;;;;;;6.10;5.50;;;15.50;99.90;;;;;;4995095;28;20202;-75
2021/05/01 10:10:43;;;;;;;5.80;5.00;;;14.30;99.90;;;;;;5001503;28;20212;-74
2021/05/01 10:13:10;;;;;;;7.23;5.90;;;14.30;99.90;;;;;;4996128;28;20201;-74
2021/05/01 10:15:37;;;;;;;7.00;5.00;;;15.60;99.90;;;;;;5008155;28;20201;-75
2021/05/01 10:18:11;;;;;;;6.47;5.60;;;16.60;99.90;;;;;;5014487;28;20566;-73
2021/05/01 10:20:45;;;;;;;6.63;5.93;;;16.50;99.90;;;;;;5008626;28;20197;-73
2021/05/01 10:23:14;;;;;;;5.73;5.17;;;17.20;99.90;;;;;;5009692;28;20211;-75
2021/05/01 10:25:42;;;;;;;5.28;4.80;;;18.00;99.90;;;;;;4999275;28;21203;-75
2021/05/01 10:28:12;;;;;;;6.95;4.93;;;19.40;99.90;;;;;;5008396;28;20208;-75
2021/05/01 10:30:42;;;;;;;5.72;4.70;;;20.80;99.90;;;;;;5010241;28;20201;-75
2021/05/01 10:33:26;;;;;;;4.80;4.40;;;21.50;99.90;;;;;;5000566;28;20205;-75
2021/05/01 10:35:58;;;;;;;5.57;4.75;;;20.40;99.90;;;;;;5010445;28;20197;-75
2021/05/01 10:38:25;;;;;;;5.07;4.57;;;19.80;99.90;;;;;;5012618;28;20197;-75
2021/05/01 10:40:53;;;;;;;8.57;5.15;;;20.20;99.90;;;;;;5013409;28;20201;-84
2021/05/01 10:43:22;;;;;;;6.00;4.80;;;20.00;99.90;;;;;;5017996;28;20199;-77
2021/05/01 10:45:53;;;;;;;7.47;5.30;;;19.70;99.90;;;;;;5013602;28;20315;-77
2021/05/01 10:48:21;;;;;;;5.60;5.10;;;19.90;99.90;;;;;;5014342;28;20196;-76
2021/05/01 10:51:03;;;;;;;5.40;4.90;;;20.70;99.90;;;;;;5012917;28;20193;-76
2021/05/01 10:53:30;;;;;;;4.85;4.45;;;21.10;99.90;;;;;;5016187;28;20197;-79
2021/05/01 10:55:57;;;;;;;7.32;5.05;;;20.40;99.90;;;;;;5010837;28;20197;-75
2021/05/01 10:58:38;;;;;;;5.35;4.75;;;19.30;99.90;;;;;;5013972;28;20201;-76
2021/05/01 11:01:06;;;;;;;5.47;4.97;;;19.20;99.90;;;;;;5000974;28;20326;-75
2021/05/01 11:03:42;;;;;;;5.35;4.85;;;20.20;99.90;;;;;;5013824;28;20197;-77
2021/05/01 11:06:09;;;;;;;5.43;4.93;;;20.50;99.90;;;;;;5013612;28;20213;-77
2021/05/01 11:08:50;;;;;;;5.68;4.93;;;20.30;99.90;;;;;;5012844;28;20200;-79
2021/05/01 11:11:18;;;;;;;5.32;4.82;;;19.60;99.90;;;;;;5003676;28;20204;-76
2021/05/01 11:13:50;;;;;;;5.13;4.72;;;20.40;99.90;;;;;;5005547;28;20200;-78
2021/05/01 11:16:17;;;;;;;6.82;5.43;;;21.20;99.90;;;;;;5013787;28;20204;-78
2021/05/01 11:18:48;;;;;;;4.78;4.35;;;21.50;99.90;;;;;;5012143;28;20586;-76
2021/05/01 11:21:17;;;;;;;5.60;4.63;;;20.80;99.90;;;;;;5012947;28;20232;-80
2021/05/01 11:23:44;;;;;;;5.68;5.07;;;19.80;99.90;;;;;;5008239;28;20539;-76
2021/05/01 11:26:11;;;;;;;4.90;4.28;;;19.80;99.90;;;;;;5005830;28;20240;-77
2021/05/01 11:28:39;;;;;;;4.40;4.00;;;20.20;99.90;;;;;;4999318;28;20201;-72
2021/05/01 11:31:06;;;;;;;5.00;4.50;;;21.10;99.90;;;;;;4997806;28;20205;-77
2021/05/01 11:33:35;;;;;;;4.03;3.72;;;22.00;99.90;;;;;;5010520;28;20610;-81
2021/05/01 11:36:02;;;;;;;4.10;3.70;;;22.70;99.90;;;;;;5012072;28;20212;-80
2021/05/01 11:38:33;;;;;;;3.70;3.20;;;23.20;99.90;;;;;;5011931;28;20642;-77
2021/05/01 11:41:02;;;;;;;4.28;3.50;;;22.30;99.90;;;;;;5010168;28;20742;-79
2021/05/01 11:43:31;;;;;;;3.83;3.40;;;21.20;99.90;;;;;;5008338;28;20201;-78
2021/05/01 11:46:10;;;;;;;3.63;3.33;;;21.40;99.90;;;;;;5013096;28;20224;-79
2021/05/01 11:48:45;;;;;;;6.03;3.42;;;21.70;99.90;;;;;;5013241;28;20659;-78
2021/05/01 11:51:15;;;;;;;5.13;3.42;;;20.90;99.90;;;;;;5009682;28;20669;-79
2021/05/01 11:53:45;;;;;;;4.22;3.35;;;20.70;99.90;;;;;;5011975;28;20227;-77
2021/05/01 11:56:26;;;;;;;4.07;3.38;;;20.10;99.90;;;;;;4998203;28;20574;-79
2021/05/01 11:59:06;;;;;;;4.55;3.85;;;19.50;99.90;;;;;;5010234;28;20201;-79
2021/05/01 12:01:34;;;;;;;5.97;3.58;;;18.70;99.90;;;;;;5012603;28;20721;-78
2021/05/01 12:04:02;;;;;;;5.30;3.78;;;18.00;99.90;;;;;;5010514;28;20205;-79
2021/05/01 12:06:36;;;;;;;4.30;3.90;;;17.30;99.90;;;;;;5012016;28;20235;-78
2021/05/01 12:09:07;;;;;;;6.50;4.00;;;17.60;99.90;;;;;;5011664;28;20196;-77
2021/05/01 12:11:36;;;;;;;4.70;4.23;;;17.50;99.90;;;;;;4993198;28;20197;-78
2021/05/01 12:14:09;;;;;;;5.63;4.67;;;17.60;99.90;;;;;;5005383;28;20239;-79
2021/05/01 12:16:36;;;;;;;4.30;3.90;;;18.20;99.90;;;;;;5012825;28;20193;-78
2021/05/01 12:19:03;;;;;;;4.80;4.33;;;18.40;99.90;;;;;;5010549;28;20689;-80
2021/05/01 12:21:31;;;;;;;5.10;3.93;;;18.20;99.90;;;;;;5011405;28;20201;-79
2021/05/01 12:23:59;;;;;;;4.63;4.00;;;18.20;99.90;;;;;;5011032;28;20203;-79
2021/05/01 12:26:40;;;;;;;4.80;4.07;;;18.50;99.90;;;;;;5009258;28;20231;-78
2021/05/01 12:29:25;;;;;;;4.80;3.87;;;18.10;99.90;;;;;;5010127;28;20192;-78
2021/05/01 12:31:53;;;;;;;4.50;4.10;;;18.40;99.90;;;;;;5012496;28;20288;-77
2021/05/01 12:34:20;;;;;;;4.25;3.85;;;18.50;99.90;;;;;;5011606;28;20205;-79
2021/05/01 12:36:49;;;;;;;5.00;4.15;;;18.30;99.90;;;;;;5011747;28;20578;-78
2021/05/01 12:39:16;;;;;;;5.20;4.05;;;19.10;99.90;;;;;;5012161;28;20197;-79
2021/05/01 12:41:45;;;;;;;3.83;3.53;;;19.80;99.90;;;;;;5009490;28;20201;-77
2021/05/01 12:44:33;;;;;;;4.10;3.70;;;20.50;99.90;;;;;;5010620;28;20220;-77
2021/05/01 12:47:00;;;;;;;4.75;3.70;;;20.50;99.90;;;;;;5012612;28;20633;-79
2021/05/01 12:49:32;;;;;;;4.78;3.90;;;20.70;99.90;;;;;;5011450;28;20197;-79